sensor_id;sensor_type;location;lat;lon;timestamp;temperature;humidity
68276;DHT22;55106;51.438;-0.098;2022-09-09T12:10:57;20.25;86.65
68276;DHT22;55106;51.438;-0.098;2022-09-09T12:13:24;20.11;85.59
68276;DHT22;55106;51.438;-0.098;2022-09-09T12:15:57;19.81;85.00
68276;DHT22;55106;51.438;-0.098;2022-09-09T12:18:35;19.59;85.33
68276;DHT22;55106;51.438;-0.098;2022-09-09T12:21:26;19.77;85.83
68276;DHT22;55106;51.438;-0.098;2022-09-09T12:24:17;20.59;83.89
68276;DHT22;55106;51.438;-0.098;2022-09-09T12:29:54;20.79;82.56
68276;DHT22;55106;51.438;-0.098;2022-09-09T12:32:24;20.63;81.76
68276;DHT22;55106;51.438;-0.098;2022-09-09T12:35:15;20.53;82.44
68276;DHT22;55106;51.438;-0.098;2022-09-09T12:37:51;20.62;83.50
68276;DHT22;55106;51.438;-0.098;2022-09-09T12:40:24;20.65;83.36
68276;DHT22;55106;51.438;-0.098;2022-09-09T12:42:51;20.49;82.54
68276;DHT22;55106;51.438;-0.098;2022-09-09T12:45:19;20.24;83.02
68276;DHT22;55106;51.438;-0.098;2022-09-09T12:47:49;20.51;84.01
68276;DHT22;55106;51.438;-0.098;2022-09-09T12:50:20;20.75;81.98
68276;DHT22;55106;51.438;-0.098;2022-09-09T12:52:48;21.03;82.22
68276;DHT22;55106;51.438;-0.098;2022-09-09T12:55:23;21.27;80.95
68276;DHT22;55106;51.438;-0.098;2022-09-09T12:57:51;21.28;78.75
68276;DHT22;55106;51.438;-0.098;2022-09-09T13:00:23;21.39;78.45
68276;DHT22;55106;51.438;-0.098;2022-09-09T13:02:54;21.34;77.85
68276;DHT22;55106;51.438;-0.098;2022-09-09T13:05:24;21.28;76.50
68276;DHT22;55106;51.438;-0.098;2022-09-09T13:07:50;21.38;77.18
68276;DHT22;55106;51.438;-0.098;2022-09-09T13:10:23;21.38;77.34
68276;DHT22;55106;51.438;-0.098;2022-09-09T13:12:50;21.10;76.95
68276;DHT22;55106;51.438;-0.098;2022-09-09T13:15:26;21.01;77.91
68276;DHT22;55106;51.438;-0.098;2022-09-09T13:17:56;20.96;76.62
68276;DHT22;55106;51.438;-0.098;2022-09-09T13:20:23;21.06;76.53
68276;DHT22;55106;51.438;-0.098;2022-09-09T13:22:51;21.08;76.28
68276;DHT22;55106;51.438;-0.098;2022-09-09T13:25:26;21.00;76.11
68276;DHT22;55106;51.438;-0.098;2022-09-09T13:30:26;20.86;77.07
68276;DHT22;55106;51.438;-0.098;2022-09-09T13:33:19;20.66;77.84
68276;DHT22;55106;51.438;-0.098;2022-09-09T13:38:18;20.86;75.87
68276;DHT22;55106;51.438;-0.098;2022-09-09T13:41:19;20.62;76.63
68276;DHT22;55106;51.438;-0.098;2022-09-09T13:43:47;20.89;76.98
68276;DHT22;55106;51.438;-0.098;2022-09-09T13:53:59;21.51;75.14
68276;DHT22;55106;51.438;-0.098;2022-09-09T13:56:25;21.78;74.97
68276;DHT22;55106;51.438;-0.098;2022-09-09T13:58:51;21.90;74.07
68276;DHT22;55106;51.438;-0.098;2022-09-09T14:01:19;21.85;73.78
68276;DHT22;55106;51.438;-0.098;2022-09-09T14:03:45;21.81;73.54
68276;DHT22;55106;51.438;-0.098;2022-09-09T14:06:10;21.52;73.74
68276;DHT22;55106;51.438;-0.098;2022-09-09T14:08:36;21.38;74.09
68276;DHT22;55106;51.438;-0.098;2022-09-09T14:11:08;21.24;74.93
68276;DHT22;55106;51.438;-0.098;2022-09-09T14:13:36;21.14;74.45
68276;DHT22;55106;51.438;-0.098;2022-09-09T14:16:02;21.06;74.99
68276;DHT22;55106;51.438;-0.098;2022-09-09T14:18:28;21.24;73.61
68276;DHT22;55106;51.438;-0.098;2022-09-09T14:20:54;21.47;73.64
68276;DHT22;55106;51.438;-0.098;2022-09-09T14:23:19;21.55;72.34
68276;DHT22;55106;51.438;-0.098;2022-09-09T14:25:47;21.63;72.04
68276;DHT22;55106;51.438;-0.098;2022-09-09T14:28:14;21.44;71.72
68276;DHT22;55106;51.438;-0.098;2022-09-09T14:30:41;21.24;74.14
68276;DHT22;55106;51.438;-0.098;2022-09-09T14:33:07;21.26;73.58
68276;DHT22;55106;51.438;-0.098;2022-09-09T14:35:33;21.23;74.34
68276;DHT22;55106;51.438;-0.098;2022-09-09T14:37:59;21.30;74.30
68276;DHT22;55106;51.438;-0.098;2022-09-09T14:40:26;21.27;73.48
68276;DHT22;55106;51.438;-0.098;2022-09-09T14:42:53;20.96;75.01
68276;DHT22;55106;51.438;-0.098;2022-09-09T14:45:18;20.87;74.91
68276;DHT22;55106;51.438;-0.098;2022-09-09T14:47:44;20.75;75.16
68276;DHT22;55106;51.438;-0.098;2022-09-09T14:50:11;20.63;75.93
68276;DHT22;55106;51.438;-0.098;2022-09-09T14:52:37;20.56;74.80
68276;DHT22;55106;51.438;-0.098;2022-09-09T14:55:04;20.57;75.76
68276;DHT22;55106;51.438;-0.098;2022-09-09T14:57:29;20.68;76.15
68276;DHT22;55106;51.438;-0.098;2022-09-09T14:59:55;20.80;75.56
68276;DHT22;55106;51.438;-0.098;2022-09-09T15:02:22;21.00;75.00
68276;DHT22;55106;51.438;-0.098;2022-09-09T15:04:47;21.08;75.20
68276;DHT22;55106;51.438;-0.098;2022-09-09T15:07:15;21.04;74.88
68276;DHT22;55106;51.438;-0.098;2022-09-09T15:09:42;20.97;73.65
68276;DHT22;55106;51.438;-0.098;2022-09-09T15:12:08;20.84;73.90
68276;DHT22;55106;51.438;-0.098;2022-09-09T15:14:33;20.69;75.67
68276;DHT22;55106;51.438;-0.098;2022-09-09T15:16:59;20.41;75.11
68276;DHT22;55106;51.438;-0.098;2022-09-09T15:19:26;20.26;76.39
68276;DHT22;55106;51.438;-0.098;2022-09-09T15:21:51;20.03;76.36
68276;DHT22;55106;51.438;-0.098;2022-09-09T15:24:16;19.83;78.78
68276;DHT22;55106;51.438;-0.098;2022-09-09T15:26:42;19.78;77.71
68276;DHT22;55106;51.438;-0.098;2022-09-09T15:29:08;19.69;79.31
68276;DHT22;55106;51.438;-0.098;2022-09-09T15:31:33;19.69;79.69
68276;DHT22;55106;51.438;-0.098;2022-09-09T15:34:04;19.60;79.28
68276;DHT22;55106;51.438;-0.098;2022-09-09T15:36:35;19.59;79.29
68276;DHT22;55106;51.438;-0.098;2022-09-09T15:39:06;19.49;80.50
68276;DHT22;55106;51.438;-0.098;2022-09-09T15:41:32;19.53;79.64
68276;DHT22;55106;51.438;-0.098;2022-09-09T15:43:59;19.52;80.16
68276;DHT22;55106;51.438;-0.098;2022-09-09T15:46:52;19.50;79.14
68276;DHT22;55106;51.438;-0.098;2022-09-09T15:49:24;19.50;79.87
68276;DHT22;55106;51.438;-0.098;2022-09-09T15:51:54;19.15;84.88
68276;DHT22;55106;51.438;-0.098;2022-09-09T15:54:21;18.47;89.05
68276;DHT22;55106;51.438;-0.098;2022-09-09T15:56:55;17.91;89.79
68276;DHT22;55106;51.438;-0.098;2022-09-09T15:59:25;17.44;90.08
68276;DHT22;55106;51.438;-0.098;2022-09-09T16:01:51;17.46;92.10
68276;DHT22;55106;51.438;-0.098;2022-09-09T16:04:21;17.54;91.12
68276;DHT22;55106;51.438;-0.098;2022-09-09T16:06:54;17.81;91.33
68276;DHT22;55106;51.438;-0.098;2022-09-09T16:09:21;18.03;92.33
68276;DHT22;55106;51.438;-0.098;2022-09-09T16:11:46;18.36;92.85
68276;DHT22;55106;51.438;-0.098;2022-09-09T16:14:18;18.50;92.59
68276;DHT22;55106;51.438;-0.098;2022-09-09T16:16:44;18.56;92.88
68276;DHT22;55106;51.438;-0.098;2022-09-09T16:19:11;18.47;92.72
68276;DHT22;55106;51.438;-0.098;2022-09-09T16:21:42;18.37;92.03
68276;DHT22;55106;51.438;-0.098;2022-09-09T16:24:10;18.28;92.30
68276;DHT22;55106;51.438;-0.098;2022-09-09T16:26:38;18.14;93.17
68276;DHT22;55106;51.438;-0.098;2022-09-09T16:29:04;18.09;93.58
68276;DHT22;55106;51.438;-0.098;2022-09-09T16:31:30;18.03;93.77
68276;DHT22;55106;51.438;-0.098;2022-09-09T16:33:59;18.05;93.81
68276;DHT22;55106;51.438;-0.098;2022-09-09T16:36:30;18.05;94.34
68276;DHT22;55106;51.438;-0.098;2022-09-09T16:39:00;18.01;91.78
68276;DHT22;55106;51.438;-0.098;2022-09-09T16:41:27;18.08;92.53
68276;DHT22;55106;51.438;-0.098;2022-09-09T16:43:54;18.13;92.83
68276;DHT22;55106;51.438;-0.098;2022-09-09T16:46:21;18.17;93.04
68276;DHT22;55106;51.438;-0.098;2022-09-09T16:48:48;18.12;90.82
68276;DHT22;55106;51.438;-0.098;2022-09-09T16:51:22;18.16;90.88
68276;DHT22;55106;51.438;-0.098;2022-09-09T16:53:53;18.16;91.73
68276;DHT22;55106;51.438;-0.098;2022-09-09T16:56:23;18.12;91.24
68276;DHT22;55106;51.438;-0.098;2022-09-09T16:58:54;18.13;91.86
68276;DHT22;55106;51.438;-0.098;2022-09-09T17:01:22;18.10;92.17
68276;DHT22;55106;51.438;-0.098;2022-09-09T17:03:54;18.09;92.64
68276;DHT22;55106;51.438;-0.098;2022-09-09T17:06:20;18.02;90.93
68276;DHT22;55106;51.438;-0.098;2022-09-09T17:08:46;17.98;91.63
68276;DHT22;55106;51.438;-0.098;2022-09-09T17:11:16;17.96;91.30
68276;DHT22;55106;51.438;-0.098;2022-09-09T17:13:44;17.94;91.72
68276;DHT22;55106;51.438;-0.098;2022-09-09T17:16:10;17.86;92.46
68276;DHT22;55106;51.438;-0.098;2022-09-09T17:18:36;17.79;92.13
68276;DHT22;55106;51.438;-0.098;2022-09-09T17:21:04;17.71;92.30
68276;DHT22;55106;51.438;-0.098;2022-09-09T17:23:29;17.60;92.24
68276;DHT22;55106;51.438;-0.098;2022-09-09T17:25:56;17.51;92.37
68276;DHT22;55106;51.438;-0.098;2022-09-09T17:28:22;17.44;93.28
68276;DHT22;55106;51.438;-0.098;2022-09-09T17:30:52;17.28;93.41
68276;DHT22;55106;51.438;-0.098;2022-09-09T17:33:17;17.23;94.30
68276;DHT22;55106;51.438;-0.098;2022-09-09T17:35:45;17.12;94.15
68276;DHT22;55106;51.438;-0.098;2022-09-09T17:38:11;16.99;94.57
68276;DHT22;55106;51.438;-0.098;2022-09-09T17:40:37;16.89;94.97
68276;DHT22;55106;51.438;-0.098;2022-09-09T17:43:02;16.78;95.01
68276;DHT22;55106;51.438;-0.098;2022-09-09T17:45:28;16.71;95.47
68276;DHT22;55106;51.438;-0.098;2022-09-09T17:47:55;16.61;95.89
68276;DHT22;55106;51.438;-0.098;2022-09-09T17:50:22;16.54;96.11
68276;DHT22;55106;51.438;-0.098;2022-09-09T17:52:47;16.57;95.74
68276;DHT22;55106;51.438;-0.098;2022-09-09T17:55:13;16.52;95.97
68276;DHT22;55106;51.438;-0.098;2022-09-09T17:57:39;16.50;96.18
68276;DHT22;55106;51.438;-0.098;2022-09-09T18:00:05;16.47;95.94
68276;DHT22;55106;51.438;-0.098;2022-09-09T18:02:31;16.44;95.95
68276;DHT22;55106;51.438;-0.098;2022-09-09T18:04:57;16.41;96.02
68276;DHT22;55106;51.438;-0.098;2022-09-09T18:07:22;16.35;96.24
68276;DHT22;55106;51.438;-0.098;2022-09-09T18:09:49;16.35;96.05
68276;DHT22;55106;51.438;-0.098;2022-09-09T18:12:15;16.32;96.44
68276;DHT22;55106;51.438;-0.098;2022-09-09T18:14:41;16.24;96.43
68276;DHT22;55106;51.438;-0.098;2022-09-09T18:17:07;16.21;95.88
68276;DHT22;55106;51.438;-0.098;2022-09-09T18:19:34;16.18;96.32
68276;DHT22;55106;51.438;-0.098;2022-09-09T18:22:00;16.14;96.26
68276;DHT22;55106;51.438;-0.098;2022-09-09T18:24:26;16.14;96.23
68276;DHT22;55106;51.438;-0.098;2022-09-09T18:26:52;16.16;96.40
68276;DHT22;55106;51.438;-0.098;2022-09-09T18:29:20;16.17;96.47
68276;DHT22;55106;51.438;-0.098;2022-09-09T18:31:48;16.23;96.37
68276;DHT22;55106;51.438;-0.098;2022-09-09T18:34:16;16.24;95.95
68276;DHT22;55106;51.438;-0.098;2022-09-09T18:36:45;16.21;94.81
68276;DHT22;55106;51.438;-0.098;2022-09-09T18:39:16;16.20;94.00
68276;DHT22;55106;51.438;-0.098;2022-09-09T18:41:53;16.16;94.60
68276;DHT22;55106;51.438;-0.098;2022-09-09T18:44:22;16.07;94.97
68276;DHT22;55106;51.438;-0.098;2022-09-09T18:46:49;15.97;95.19
68276;DHT22;55106;51.438;-0.098;2022-09-09T18:49:16;15.87;95.47
68276;DHT22;55106;51.438;-0.098;2022-09-09T18:51:42;15.81;95.78
68276;DHT22;55106;51.438;-0.098;2022-09-09T18:54:14;15.69;95.89
68276;DHT22;55106;51.438;-0.098;2022-09-09T18:56:41;15.61;96.44
68276;DHT22;55106;51.438;-0.098;2022-09-09T18:59:10;15.48;96.51
68276;DHT22;55106;51.438;-0.098;2022-09-09T19:01:36;15.42;96.84
68276;DHT22;55106;51.438;-0.098;2022-09-09T19:04:03;15.32;96.74
68276;DHT22;55106;51.438;-0.098;2022-09-09T19:06:31;15.27;96.66
68276;DHT22;55106;51.438;-0.098;2022-09-09T19:08:57;15.27;96.95
68276;DHT22;55106;51.438;-0.098;2022-09-09T19:11:24;15.24;97.10
68276;DHT22;55106;51.438;-0.098;2022-09-09T19:13:59;15.21;97.24
68276;DHT22;55106;51.438;-0.098;2022-09-09T19:16:27;15.17;97.02
68276;DHT22;55106;51.438;-0.098;2022-09-09T19:18:54;15.20;97.17
68276;DHT22;55106;51.438;-0.098;2022-09-09T19:21:21;15.17;97.29
68276;DHT22;55106;51.438;-0.098;2022-09-09T19:23:59;15.20;97.20
68276;DHT22;55106;51.438;-0.098;2022-09-09T19:26:26;15.23;97.38
68276;DHT22;55106;51.438;-0.098;2022-09-09T19:28:51;15.27;97.16
68276;DHT22;55106;51.438;-0.098;2022-09-09T19:31:18;15.31;97.14
68276;DHT22;55106;51.438;-0.098;2022-09-09T19:33:45;15.34;97.19
68276;DHT22;55106;51.438;-0.098;2022-09-09T19:36:13;15.42;97.00
68276;DHT22;55106;51.438;-0.098;2022-09-09T19:38:39;15.54;97.22
68276;DHT22;55106;51.438;-0.098;2022-09-09T19:41:11;15.58;97.17
68276;DHT22;55106;51.438;-0.098;2022-09-09T19:43:38;15.58;97.11
68276;DHT22;55106;51.438;-0.098;2022-09-09T19:46:06;15.61;97.09
68276;DHT22;55106;51.438;-0.098;2022-09-09T19:48:36;15.65;97.19
68276;DHT22;55106;51.438;-0.098;2022-09-09T19:51:11;15.66;97.11
68276;DHT22;55106;51.438;-0.098;2022-09-09T19:53:51;15.69;97.05
68276;DHT22;55106;51.438;-0.098;2022-09-09T19:56:25;15.69;97.05
68276;DHT22;55106;51.438;-0.098;2022-09-09T19:58:52;15.67;97.07
68276;DHT22;55106;51.438;-0.098;2022-09-09T20:01:29;15.63;97.11
68276;DHT22;55106;51.438;-0.098;2022-09-09T20:03:58;15.54;97.10
68276;DHT22;55106;51.438;-0.098;2022-09-09T20:06:25;15.44;97.24
68276;DHT22;55106;51.438;-0.098;2022-09-09T20:08:53;15.35;97.35
68276;DHT22;55106;51.438;-0.098;2022-09-09T20:11:19;15.28;97.27
68276;DHT22;55106;51.438;-0.098;2022-09-09T20:13:45;15.15;97.49
68276;DHT22;55106;51.438;-0.098;2022-09-09T20:16:17;15.08;97.34
68276;DHT22;55106;51.438;-0.098;2022-09-09T20:18:45;14.98;97.47
68276;DHT22;55106;51.438;-0.098;2022-09-09T20:21:17;14.97;97.78
68276;DHT22;55106;51.438;-0.098;2022-09-09T20:23:46;14.94;97.66
68276;DHT22;55106;51.438;-0.098;2022-09-09T20:26:14;14.94;97.60
68276;DHT22;55106;51.438;-0.098;2022-09-09T20:28:42;14.97;97.66
68276;DHT22;55106;51.438;-0.098;2022-09-09T20:33:34;15.06;97.62
68276;DHT22;55106;51.438;-0.098;2022-09-09T20:36:08;15.10;97.58
68276;DHT22;55106;51.438;-0.098;2022-09-09T20:38:34;15.12;97.69
68276;DHT22;55106;51.438;-0.098;2022-09-09T20:41:03;15.12;97.61
68276;DHT22;55106;51.438;-0.098;2022-09-09T20:43:29;15.08;97.64
68276;DHT22;55106;51.438;-0.098;2022-09-09T20:45:55;15.00;97.60
68276;DHT22;55106;51.438;-0.098;2022-09-09T20:48:22;14.97;97.70
68276;DHT22;55106;51.438;-0.098;2022-09-09T20:50:48;14.93;97.76
68276;DHT22;55106;51.438;-0.098;2022-09-09T20:53:14;14.90;97.68
68276;DHT22;55106;51.438;-0.098;2022-09-09T20:55:39;14.86;97.70
68276;DHT22;55106;51.438;-0.098;2022-09-09T20:58:05;14.86;97.79
68276;DHT22;55106;51.438;-0.098;2022-09-09T21:00:31;14.80;97.75
68276;DHT22;55106;51.438;-0.098;2022-09-09T21:02:56;14.77;97.74
68276;DHT22;55106;51.438;-0.098;2022-09-09T21:05:22;14.73;97.78
68276;DHT22;55106;51.438;-0.098;2022-09-09T21:07:47;14.75;98.13
68276;DHT22;55106;51.438;-0.098;2022-09-09T21:10:13;14.73;98.07
68276;DHT22;55106;51.438;-0.098;2022-09-09T21:12:38;14.73;97.87
68276;DHT22;55106;51.438;-0.098;2022-09-09T21:15:04;14.75;98.09
68276;DHT22;55106;51.438;-0.098;2022-09-09T21:17:30;14.73;98.08
68276;DHT22;55106;51.438;-0.098;2022-09-09T21:19:56;14.67;97.90
68276;DHT22;55106;51.438;-0.098;2022-09-09T21:22:21;14.59;97.99
68276;DHT22;55106;51.438;-0.098;2022-09-09T21:24:47;14.60;98.17
68276;DHT22;55106;51.438;-0.098;2022-09-09T21:27:12;14.55;98.17
68276;DHT22;55106;51.438;-0.098;2022-09-09T21:29:39;14.52;98.20
68276;DHT22;55106;51.438;-0.098;2022-09-09T21:32:04;14.50;98.19
68276;DHT22;55106;51.438;-0.098;2022-09-09T21:34:33;14.50;98.39
68276;DHT22;55106;51.438;-0.098;2022-09-09T21:36:58;14.50;98.45
68276;DHT22;55106;51.438;-0.098;2022-09-09T21:39:24;14.49;98.46
68276;DHT22;55106;51.438;-0.098;2022-09-09T21:41:49;14.45;98.46
68276;DHT22;55106;51.438;-0.098;2022-09-09T21:44:15;14.40;98.30
68276;DHT22;55106;51.438;-0.098;2022-09-09T21:46:41;14.39;98.34
68276;DHT22;55106;51.438;-0.098;2022-09-09T21:49:11;14.35;98.26
68276;DHT22;55106;51.438;-0.098;2022-09-09T21:51:36;14.32;98.37
68276;DHT22;55106;51.438;-0.098;2022-09-09T21:54:02;14.28;98.37
68276;DHT22;55106;51.438;-0.098;2022-09-09T21:56:27;14.28;98.52
68276;DHT22;55106;51.438;-0.098;2022-09-09T21:58:57;14.26;98.45
68276;DHT22;55106;51.438;-0.098;2022-09-09T22:01:24;14.19;98.38
68276;DHT22;55106;51.438;-0.098;2022-09-09T22:03:50;14.17;98.39
68276;DHT22;55106;51.438;-0.098;2022-09-09T22:06:17;14.11;98.50
68276;DHT22;55106;51.438;-0.098;2022-09-09T22:08:44;14.12;98.60
68276;DHT22;55106;51.438;-0.098;2022-09-09T22:11:15;14.12;98.66
68276;DHT22;55106;51.438;-0.098;2022-09-09T22:13:43;14.02;98.55
68276;DHT22;55106;51.438;-0.098;2022-09-09T22:16:14;14.02;98.57
68276;DHT22;55106;51.438;-0.098;2022-09-09T22:18:41;13.98;98.62
68276;DHT22;55106;51.438;-0.098;2022-09-09T22:21:09;14.02;98.76
68276;DHT22;55106;51.438;-0.098;2022-09-09T22:23:35;14.02;98.82
68276;DHT22;55106;51.438;-0.098;2022-09-09T22:26:01;13.98;98.66
68276;DHT22;55106;51.438;-0.098;2022-09-09T22:28:26;13.95;98.78
68276;DHT22;55106;51.438;-0.098;2022-09-09T22:30:54;13.98;98.87
68276;DHT22;55106;51.438;-0.098;2022-09-09T22:33:19;13.97;98.94
68276;DHT22;55106;51.438;-0.098;2022-09-09T22:35:44;13.95;98.77
68276;DHT22;55106;51.438;-0.098;2022-09-09T22:38:10;14.00;98.98
68276;DHT22;55106;51.438;-0.098;2022-09-09T22:40:40;13.91;98.79
68276;DHT22;55106;51.438;-0.098;2022-09-09T22:43:13;13.91;98.85
68276;DHT22;55106;51.438;-0.098;2022-09-09T22:45:39;13.83;98.82
68276;DHT22;55106;51.438;-0.098;2022-09-09T22:48:06;13.80;98.79
68276;DHT22;55106;51.438;-0.098;2022-09-09T22:50:34;13.78;98.96
68276;DHT22;55106;51.438;-0.098;2022-09-09T22:53:02;13.74;98.90
68276;DHT22;55106;51.438;-0.098;2022-09-09T22:55:27;13.74;99.07
68276;DHT22;55106;51.438;-0.098;2022-09-09T22:57:53;13.70;99.01
68276;DHT22;55106;51.438;-0.098;2022-09-09T23:00:18;13.67;98.93
68276;DHT22;55106;51.438;-0.098;2022-09-09T23:02:44;13.63;98.98
68276;DHT22;55106;51.438;-0.098;2022-09-09T23:05:12;13.66;99.00
68276;DHT22;55106;51.438;-0.098;2022-09-09T23:07:38;13.64;99.06
68276;DHT22;55106;51.438;-0.098;2022-09-09T23:10:04;13.62;99.11
68276;DHT22;55106;51.438;-0.098;2022-09-09T23:12:30;13.53;98.98
68276;DHT22;55106;51.438;-0.098;2022-09-09T23:14:55;13.54;99.15
68276;DHT22;55106;51.438;-0.098;2022-09-09T23:17:22;13.49;99.08
68276;DHT22;55106;51.438;-0.098;2022-09-09T23:19:47;13.46;99.08
68276;DHT22;55106;51.438;-0.098;2022-09-09T23:22:24;13.43;99.09
68276;DHT22;55106;51.438;-0.098;2022-09-09T23:24:51;13.38;99.04
68276;DHT22;55106;51.438;-0.098;2022-09-09T23:27:17;13.38;99.20
68276;DHT22;55106;51.438;-0.098;2022-09-09T23:29:43;13.32;99.07
68276;DHT22;55106;51.438;-0.098;2022-09-09T23:32:08;13.27;99.12
68276;DHT22;55106;51.438;-0.098;2022-09-09T23:34:33;13.33;99.25
68276;DHT22;55106;51.438;-0.098;2022-09-09T23:36:59;13.26;99.25
68276;DHT22;55106;51.438;-0.098;2022-09-09T23:39:25;13.29;99.31
68276;DHT22;55106;51.438;-0.098;2022-09-09T23:41:50;13.25;99.32
68276;DHT22;55106;51.438;-0.098;2022-09-09T23:44:16;13.23;99.35
68276;DHT22;55106;51.438;-0.098;2022-09-09T23:46:41;13.20;99.36
68276;DHT22;55106;51.438;-0.098;2022-09-09T23:49:07;13.14;99.28
68276;DHT22;55106;51.438;-0.098;2022-09-09T23:51:34;13.14;99.27
68276;DHT22;55106;51.438;-0.098;2022-09-09T23:54:03;13.08;99.30
68276;DHT22;55106;51.438;-0.098;2022-09-09T23:56:32;13.08;99.22
68276;DHT22;55106;51.438;-0.098;2022-09-09T23:58:58;13.04;99.36
